Sign in

Goboko is closing

The Goboko aircraft booking service is closing on 21st April 2018 after serving the aviation community for 15 years. Click here for more information

Links

Info

Aviation weather

METAR KDAB 192353Z VRB06KT 9SM FEW050 22/20 A3030 RMK AO2 SLP258 T02220200 10272 20222 53004

TAF KDAB 192320Z 2000/2024 09005KT P6SM SCT030 FM200600 10005KT P6SM SCT015 SCT025 FM201500 11011KT P6SM FEW025 SCT035

Aviation weather from ADDS. Re-check weather before flight.

-